createdAt,value
2023-02-02T00:02:17.666Z,2.78
2023-02-02T00:07:20.681Z,2.80
2023-02-02T00:12:23.712Z,2.82
2023-02-02T00:17:26.741Z,2.81
2023-02-02T00:22:29.740Z,2.78
2023-02-02T00:27:32.735Z,2.74
2023-02-02T00:32:35.866Z,2.73
2023-02-02T00:37:38.908Z,2.71
2023-02-02T00:42:43.364Z,2.71
2023-02-02T00:47:49.783Z,2.69
2023-02-02T00:52:53.057Z,2.66
2023-02-02T00:57:56.257Z,2.62
2023-02-02T01:03:04.640Z,2.55
2023-02-02T01:08:08.248Z,2.39
2023-02-02T01:13:11.397Z,2.17
2023-02-02T01:18:14.356Z,1.98
2023-02-02T01:23:17.393Z,1.81
2023-02-02T01:28:20.468Z,1.67
2023-02-02T01:33:24.912Z,1.58
2023-02-02T01:38:27.956Z,1.52
2023-02-02T01:43:43.241Z,1.48
2023-02-02T01:49:20.261Z,1.46
2023-02-02T01:54:48.234Z,1.46
2023-02-02T01:59:55.368Z,1.52
2023-02-02T02:05:03.152Z,1.60
2023-02-02T02:10:07.026Z,1.67
2023-02-02T02:15:29.627Z,1.73
2023-02-02T02:21:15.786Z,1.79
2023-02-02T02:27:03.084Z,1.86
2023-02-02T02:32:38.177Z,1.93
2023-02-02T02:38:00.252Z,1.99
2023-02-02T02:43:10.930Z,2.06
2023-02-02T02:48:15.190Z,2.14
2023-02-02T02:53:22.240Z,2.22
2023-02-02T02:58:49.873Z,2.29
2023-02-02T03:04:22.213Z,2.39
2023-02-02T03:09:39.847Z,2.50
2023-02-02T03:14:42.881Z,2.61
2023-02-02T03:19:48.583Z,2.69
2023-02-02T03:24:51.541Z,2.73
2023-02-02T03:29:55.435Z,2.77
2023-02-02T03:34:59.572Z,2.80
2023-02-02T03:40:07.003Z,2.84
2023-02-02T03:45:10.894Z,2.87
2023-02-02T03:50:14.472Z,2.88
2023-02-02T03:55:17.607Z,2.89
2023-02-02T04:00:21.672Z,2.91
2023-02-02T04:05:25.287Z,2.93
2023-02-02T04:10:31.062Z,2.94
2023-02-02T04:15:36.794Z,2.94
2023-02-02T04:20:39.773Z,2.94
2023-02-02T04:25:50.656Z,2.94
2023-02-02T04:30:56.152Z,2.96
2023-02-02T04:35:59.169Z,2.98
2023-02-02T04:41:11.474Z,3.00
2023-02-02T04:46:15.026Z,3.02
2023-02-02T04:51:18.908Z,3.03
2023-02-02T04:56:22.912Z,3.03
2023-02-02T05:01:26.879Z,3.05
2023-02-02T05:06:29.794Z,3.04
2023-02-02T05:11:32.856Z,3.02
2023-02-02T05:16:35.866Z,2.97
2023-02-02T05:21:38.924Z,2.92
2023-02-02T05:26:41.998Z,2.88
2023-02-02T05:31:45.032Z,2.87
2023-02-02T05:36:48.330Z,2.89
2023-02-02T05:41:51.359Z,2.90
2023-02-02T05:46:54.519Z,2.91
2023-02-02T05:51:59.439Z,2.87
2023-02-02T05:57:03.271Z,2.80
2023-02-02T06:02:07.491Z,2.72
2023-02-02T06:07:10.895Z,2.73
2023-02-02T06:12:13.969Z,2.78
2023-02-02T06:17:18.196Z,2.76
2023-02-02T06:22:21.299Z,2.77
2023-02-02T06:27:24.453Z,2.79
2023-02-02T06:32:30.940Z,2.82
2023-02-02T06:37:34.339Z,2.88
2023-02-02T06:42:37.290Z,2.92
2023-02-02T06:47:40.361Z,2.92
2023-02-02T06:52:54.060Z,2.94
2023-02-02T06:57:59.663Z,2.98
2023-02-02T07:03:02.579Z,3.03
2023-02-02T07:08:08.403Z,3.03
2023-02-02T07:13:14.644Z,3.05
2023-02-02T07:18:17.607Z,3.12
2023-02-02T07:23:20.580Z,3.19
2023-02-02T07:28:23.588Z,3.23
2023-02-02T07:33:30.007Z,3.15
2023-02-02T07:38:33.049Z,3.10
2023-02-02T07:43:37.143Z,3.10
2023-02-02T07:48:43.422Z,3.20
2023-02-02T07:53:49.463Z,3.33
2023-02-02T07:58:54.815Z,3.36
2023-02-02T08:04:00.988Z,3.33
2023-02-02T08:09:07.997Z,3.33
2023-02-02T08:14:14.370Z,3.32
2023-02-02T08:19:17.323Z,3.47
2023-02-02T08:24:20.343Z,3.65
2023-02-02T08:29:23.283Z,3.79
2023-02-02T08:34:26.201Z,3.86
2023-02-02T08:39:29.214Z,3.61
2023-02-02T08:45:00.715Z,3.40
2023-02-02T08:49:55.232Z,3.20
2023-02-02T08:54:58.105Z,2.98
2023-02-02T09:00:01.027Z,2.87
2023-02-02T09:05:04.145Z,2.83
2023-02-02T09:10:07.668Z,2.76
2023-02-02T09:15:12.198Z,2.70
2023-02-02T09:20:15.351Z,2.60
2023-02-02T09:25:18.497Z,2.58
2023-02-02T09:30:21.903Z,2.67
2023-02-02T09:35:25.051Z,2.69
2023-02-02T09:40:32.220Z,2.62
2023-02-02T09:46:08.815Z,2.49
2023-02-02T09:51:20.992Z,2.42
2023-02-02T09:56:37.938Z,2.52
2023-02-02T10:01:47.614Z,2.62
2023-02-02T10:06:59.659Z,2.75
2023-02-02T10:12:27.083Z,2.91
2023-02-02T10:17:39.040Z,2.95
2023-02-02T10:22:43.719Z,3.01
2023-02-02T10:28:03.841Z,3.27
2023-02-02T10:33:16.632Z,3.52
2023-02-02T10:38:53.244Z,3.51
2023-02-02T10:44:31.365Z,3.41
2023-02-02T10:49:40.942Z,3.34
2023-02-02T10:55:03.975Z,3.59
2023-02-02T11:00:15.981Z,3.59
2023-02-02T11:05:46.129Z,3.64
2023-02-02T11:10:56.140Z,3.77
2023-02-02T11:16:17.300Z,4.03
2023-02-02T11:21:25.558Z,4.23
2023-02-02T11:26:50.065Z,3.99
2023-02-02T11:31:57.052Z,3.91
2023-02-02T11:37:20.198Z,3.68
2023-02-02T11:42:25.028Z,3.53
2023-02-02T11:47:33.333Z,3.38
2023-02-02T11:52:40.269Z,3.30
2023-02-02T11:58:20.333Z,3.34
2023-02-02T12:03:39.673Z,3.02
2023-02-02T12:08:42.997Z,2.38
2023-02-02T12:14:03.962Z,2.47
2023-02-02T12:19:37.603Z,2.59
2023-02-02T12:24:57.400Z,2.68
2023-02-02T12:30:40.960Z,2.87
2023-02-02T12:36:20.722Z,3.09
2023-02-02T12:41:48.364Z,3.09
2023-02-02T12:47:22.563Z,3.11
2023-02-02T12:52:57.484Z,3.08
2023-02-02T12:58:23.749Z,3.10
2023-02-02T13:03:52.725Z,3.08
2023-02-02T13:09:14.240Z,3.19
2023-02-02T13:14:30.720Z,3.29
2023-02-02T13:19:52.317Z,3.25
2023-02-02T13:25:02.629Z,2.79
2023-02-02T13:30:23.809Z,2.67
2023-02-02T13:35:39.928Z,2.90
2023-02-02T13:40:44.961Z,2.55
2023-02-02T13:46:16.809Z,1.97
2023-02-02T13:51:57.201Z,1.76
2023-02-02T13:57:03.680Z,1.59
2023-02-02T14:02:43.362Z,1.59
2023-02-02T14:07:48.838Z,1.26
2023-02-02T14:12:52.954Z,1.03
2023-02-02T14:17:56.030Z,1.01
2023-02-02T14:23:37.542Z,1.09
2023-02-02T14:29:10.473Z,1.15
2023-02-02T14:34:39.579Z,1.22
2023-02-02T14:40:12.564Z,1.25
2023-02-02T14:45:45.574Z,1.28
2023-02-02T14:50:54.915Z,1.28
2023-02-02T14:56:05.301Z,1.31
2023-02-02T15:01:17.793Z,1.34
2023-02-02T15:06:42.201Z,1.37
2023-02-02T15:12:06.644Z,1.40
2023-02-02T15:18:01.985Z,1.45
2023-02-02T15:23:23.883Z,1.46
2023-02-02T15:29:22.726Z,1.46
2023-02-02T15:34:46.974Z,1.45
2023-02-02T15:39:56.750Z,1.41
2023-02-02T15:44:59.932Z,1.34
2023-02-02T15:50:18.083Z,1.28
2023-02-02T15:55:32.055Z,1.21
2023-02-02T16:01:04.738Z,1.16
2023-02-02T16:06:09.173Z,1.11
2023-02-02T16:11:21.152Z,1.08
2023-02-02T16:16:34.659Z,1.08
2023-02-02T16:22:05.857Z,1.05
2023-02-02T16:27:24.546Z,0.97
2023-02-02T16:32:30.560Z,0.97
2023-02-02T16:37:36.703Z,0.98
2023-02-02T16:42:39.810Z,1.03
2023-02-02T16:47:42.859Z,1.03
2023-02-02T16:53:24.885Z,1.04
2023-02-02T16:58:28.717Z,0.92
2023-02-02T17:03:36.386Z,0.68
2023-02-02T17:08:41.251Z,0.60
2023-02-02T17:13:44.913Z,0.60
2023-02-02T17:18:48.415Z,0.63
2023-02-02T17:23:54.430Z,0.64
2023-02-02T17:29:00.246Z,0.64
2023-02-02T17:34:16.026Z,0.65
2023-02-02T17:39:18.978Z,0.63
2023-02-02T17:44:21.956Z,0.61
2023-02-02T17:49:25.149Z,0.60
2023-02-02T17:54:28.071Z,0.58
2023-02-02T17:59:31.357Z,0.58
2023-02-02T18:04:36.067Z,0.58
2023-02-02T18:09:42.046Z,0.58
2023-02-02T18:14:45.326Z,0.55
2023-02-02T18:19:51.252Z,0.51
2023-02-02T18:24:54.522Z,0.51
2023-02-02T18:29:58.040Z,0.55
2023-02-02T18:35:01.294Z,0.60
2023-02-02T18:40:07.324Z,0.60
2023-02-02T18:45:11.769Z,0.58
2023-02-02T18:50:15.195Z,0.52
2023-02-02T18:55:18.095Z,0.50
2023-02-02T19:00:22.303Z,0.48
2023-02-02T19:05:43.896Z,0.44
2023-02-02T19:11:00.624Z,0.43
2023-02-02T19:16:31.550Z,0.40
2023-02-02T19:21:34.953Z,0.39
2023-02-02T19:26:44.220Z,0.41
2023-02-02T19:31:53.966Z,0.44
2023-02-02T19:36:58.099Z,0.42
2023-02-02T19:42:01.807Z,0.41
2023-02-02T19:47:34.384Z,0.43
2023-02-02T19:52:37.501Z,0.42
2023-02-02T19:57:42.202Z,0.43
2023-02-02T20:02:54.570Z,0.40
2023-02-02T20:08:05.608Z,0.41
2023-02-02T20:13:42.060Z,0.40
2023-02-02T20:19:05.191Z,0.37
2023-02-02T20:24:21.273Z,0.35
2023-02-02T20:29:39.514Z,0.35
2023-02-02T20:34:44.442Z,0.34
2023-02-02T20:40:27.250Z,0.27
2023-02-02T20:45:30.430Z,0.17
2023-02-02T20:50:33.366Z,0.07
2023-02-02T20:55:37.077Z,0.00
2023-02-02T21:00:40.759Z,-0.04
2023-02-02T21:05:44.098Z,-0.01
2023-02-02T21:10:46.967Z,-0.02
2023-02-02T21:15:49.988Z,0.01
2023-02-02T21:20:52.899Z,0.01
2023-02-02T21:25:55.986Z,0.00
2023-02-02T21:30:59.211Z,-0.05
2023-02-02T21:36:28.676Z,-0.12
2023-02-02T21:41:33.672Z,-0.17
2023-02-02T21:46:39.085Z,-0.25
2023-02-02T21:51:42.772Z,-0.28
2023-02-02T21:56:45.951Z,-0.32
2023-02-02T22:01:52.017Z,-0.35
2023-02-02T22:07:12.950Z,-0.39
2023-02-02T22:12:29.893Z,-0.49
2023-02-02T22:17:40.425Z,-0.51
2023-02-02T22:22:49.874Z,-0.58
2023-02-02T22:27:57.890Z,-0.60
2023-02-02T22:33:01.026Z,-0.67
2023-02-02T22:38:05.744Z,-0.81
2023-02-02T22:43:08.711Z,-0.94
2023-02-02T22:48:13.802Z,-0.93
2023-02-02T22:53:16.720Z,-0.91
2023-02-02T22:58:19.611Z,-0.86
2023-02-02T23:03:22.534Z,-0.81
2023-02-02T23:08:28.425Z,-0.89
2023-02-02T23:13:31.315Z,-1.00
2023-02-02T23:18:34.181Z,-1.13
2023-02-02T23:23:39.956Z,-1.25
2023-02-02T23:28:42.912Z,-1.31
2023-02-02T23:33:45.785Z,-1.38
2023-02-02T23:38:50.342Z,-1.40
2023-02-02T23:43:53.866Z,-1.44
2023-02-02T23:49:00.859Z,-1.47
2023-02-02T23:54:04.099Z,-1.50
2023-02-02T23:59:07.445Z,-1.51
